Latest Coastal Weather Observations for St Helens

IDT60701

Issued at 9:02 am EDT Sunday 5 February 2023 (issued every 10 minutes, with the page automatically refreshed every 10 minutes)

About coastal observations | Map of coastal stations | Coastal observations for TAS | Marine services | Other Formats
Station Details ID: 092120 Name: ST HELENS AERODROME Lat: -41.34 Lon: 148.28 Height: 48.0 m
Data from the previous 72 hours. | See also: Recent months at St Helens
Date/Time
EDT
Wind Sea
Height
m
Swell Vis
km
Cloud Weather Temp
°C
Press
MSL
hPa
Rain since
9am
mm
Dir  Spd
kts
Gust
kts
Height
m
Period
s
Dir
05/09:00am NW 3 4 - - - - 10 Clear - 16.7 1010.7 3.0
05/08:30am NNW 4 5 - - - - 10 - - 15.3 1010.3 3.0
05/08:00am NNW 3 5 - - - - 10 - - 13.8 1009.9 3.0
05/07:30am NW 4 7 - - - - 10 - - 13.5 1009.5 3.0
05/07:00am NW 5 6 - - - - 10 - - 12.6 1008.8 3.0
05/06:30am SW 3 8 - - - - 10 - - 12.7 1008.0 3.0
05/06:00am WSW 3 6 - - - - 10 - - 13.5 1007.6 3.0
05/05:30am SW 5 8 - - - - 10 - - 14.1 1007.2 3.0
05/05:00am SSW 6 10 - - - - 10 - - 14.1 1006.4 3.0
05/04:30am SW 7 13 - - - - 10 Partly cloudy - 14.8 1005.9 3.0
05/04:00am SSW 5 9 - - - - 10 Cloudy - 15.1 1006.0 3.0
05/03:30am SSW 5 11 - - - - 10 Cloudy - 14.9 1005.7 3.0
05/03:00am WSW 5 8 - - - - 10 Mostly clear - 14.7 1005.3 3.0
05/02:30am SSW 5 9 - - - - 10 - - 14.8 1004.9 3.0
05/02:00am SSW 6 10 - - - - 10 - - 14.8 1004.7 3.0
05/01:30am SSW 8 19 - - - - 10 Partly cloudy - 15.1 1004.1 3.0
05/01:00am SSW 5 8 - - - - 10 Partly cloudy - 14.3 1003.8 3.0
05/12:30am SW 1 4 - - - - 10 Partly cloudy - 15.6 1003.5 3.0
05/12:00am SW 7 14 - - - - 10 Cloudy - 16.2 1003.2 3.0
 
Date/Time
EDT
Wind Sea
Height
m
Swell Vis
km
Cloud Weather Temp
°C
Press
MSL
hPa
Rain since
9am
mm
Dir  Spd
kts
Gust
kts
Height
m
Period
s
Dir
04/11:30pm SW 5 12 - - - - 10 Partly cloudy - 16.0 1003.0 3.0
04/11:00pm SW 6 10 - - - - 10 Partly cloudy - 16.1 1002.8 3.0
04/10:30pm SW 6 13 - - - - 10 Cloudy - 16.4 1002.7 3.0
04/10:00pm SW 7 14 - - - - 10 Partly cloudy - 16.2 1002.3 3.0
04/09:30pm SW 5 10 - - - - 10 Partly cloudy - 16.0 1001.9 3.0
04/09:00pm SW 6 11 - - - - 10 Cloudy - 16.3 1001.2 3.0
04/08:30pm CALM 0 0 - - - - 10 Partly cloudy - 16.3 1000.3 3.0
04/08:00pm S 4 9 - - - - 10 Partly cloudy - 17.0 999.7 3.0
04/07:30pm SSW 4 9 - - - - 10 Partly cloudy - 17.6 999.0 3.0
04/07:00pm SSE 5 9 - - - - 10 Partly cloudy - 16.2 998.4 3.0
04/06:30pm SE 5 9 - - - - 10 Partly cloudy - 16.5 997.9 3.0
04/06:00pm SE 5 10 - - - - 10 Cloudy - 16.9 997.4 3.0
04/05:30pm SSW 7 13 - - - - 10 Partly cloudy - 18.8 996.8 3.0
04/05:00pm SW 5 12 - - - - 10 Partly cloudy - 19.5 996.4 3.0
04/04:30pm WNW 4 6 - - - - 10 Partly cloudy - 18.6 996.5 3.0
04/04:00pm NNE 1 4 - - - - 10 - - 16.2 996.5 3.0
04/03:30pm W 2 4 - - - - 10 - - 16.0 996.5 2.4
04/03:00pm CALM 0 4 - - - - 7 - - 15.3 996.5 1.6
04/02:30pm SSW 1 4 - - - - 10 - - 15.6 996.3 0.8
04/02:00pm S 6 10 - - - - 10 Partly cloudy - 17.2 996.1 0.0
04/01:30pm SSW 8 17 - - - - 10 Partly cloudy - 18.4 995.8 0.0
04/01:00pm SSW 5 11 - - - - 10 Partly cloudy - 19.1 995.5 0.0
04/12:30pm SW 5 11 - - - - 10 Partly cloudy - 18.0 995.5 0.0
04/12:00pm SSW 6 11 - - - - 10 Cloudy - 19.0 995.5 0.0
04/11:30am SW 5 10 - - - - 10 - - 18.9 995.6 0.0
04/11:00am SW 5 7 - - - - 10 Partly cloudy - 16.5 996.0 0.0
04/10:30am WSW 4 6 - - - - 10 Partly cloudy - 16.6 996.0 0.0
04/10:00am W 5 9 - - - - 10 Partly cloudy - 16.2 996.0 0.0
04/09:30am WNW 6 11 - - - - 10 Partly cloudy - 16.0 995.7 0.0
04/09:00am NW 5 8 - - - - 10 Cloudy - 15.1 995.6 0.0
04/08:30am NW 5 8 - - - - 10 - - 13.7 995.6 0.0
04/08:00am NNW 2 4 - - - - 10 - - 12.2 995.4 0.0
04/07:30am NNW 4 4 - - - - 10 - - 10.9 995.2 0.0
04/07:00am NNE 5 6 - - - - 10 - - 9.9 995.2 0.0
04/06:30am W 3 4 - - - - 10 - - 9.2 994.9 0.0
04/06:00am NNW 2 4 - - - - 10 Cloudy - 9.8 994.8 0.0
04/05:30am WNW 4 5 - - - - 10 - - 9.7 994.9 0.0
04/05:00am WSW 3 6 - - - - 10 - - 9.8 994.6 0.0
04/04:30am NNW 4 6 - - - - 10 - - 10.1 994.5 0.0
04/04:00am NNW 4 6 - - - - 10 - - 10.3 994.7 0.0
04/03:30am WSW 3 6 - - - - 10 - - 10.1 994.9 0.0
04/03:00am WNW 5 7 - - - - 10 - - 10.7 995.1 0.0
04/02:30am WNW 3 5 - - - - 10 - - 10.4 995.3 0.0
04/02:00am NNW 6 9 - - - - 10 - - 11.8 995.5 0.0
04/01:30am NNW 6 9 - - - - 10 - - 11.6 995.7 0.0
04/01:00am WNW 5 8 - - - - 10 - - 11.4 995.9 0.0
04/12:30am NW 7 11 - - - - 10 - - 11.9 996.1 0.0
04/12:00am WNW 6 9 - - - - 10 - - 12.4 995.9 0.0
 
Date/Time
EDT
Wind Sea
Height
m
Swell Vis
km
Cloud Weather Temp
°C
Press
MSL
hPa
Rain since
9am
mm
Dir  Spd
kts
Gust
kts
Height
m
Period
s
Dir
03/11:30pm NW 8 12 - - - - 10 - - 12.7 995.5 0.0
03/11:00pm NNW 8 13 - - - - 10 - - 12.9 995.2 0.0
03/10:30pm NW 9 14 - - - - 10 - - 13.1 995.0 0.0
03/10:00pm NW 8 13 - - - - 10 - - 13.3 994.8 0.0
03/09:30pm NW 8 14 - - - - 10 - - 13.7 994.5 0.0
03/09:00pm NW 8 13 - - - - 10 - - 14.0 994.0 0.0
03/08:30pm NW 9 16 - - - - 10 - - 14.5 993.4 0.0
03/08:00pm NW 10 16 - - - - 10 - - 15.3 992.9 0.0
03/07:30pm NW 9 17 - - - - 10 - - 16.3 992.4 0.0
03/07:00pm NW 9 16 - - - - 10 - - 17.0 991.9 0.0
03/06:30pm NW 9 16 - - - - 10 Partly cloudy - 17.5 991.5 0.0
03/06:00pm WNW 8 14 - - - - 10 - - 18.5 990.9 0.0
03/05:30pm W 8 15 - - - - 10 - - 18.5 990.7 0.0
03/05:00pm WNW 9 16 - - - - 10 Partly cloudy - 18.8 990.3 0.0
03/04:30pm WNW 12 19 - - - - 10 - - 18.3 990.1 0.0
03/04:00pm WNW 10 21 - - - - 10 - - 18.6 989.5 0.0
03/03:30pm W 11 19 - - - - 10 Partly cloudy - 18.4 989.4 0.0
03/03:00pm W 8 14 - - - - 10 Cloudy - 18.0 989.3 0.0
03/02:30pm WNW 10 21 - - - - 10 Partly cloudy - 17.2 989.0 0.0
03/02:00pm NW 8 14 - - - - 10 - - 17.3 988.9 0.0
03/01:30pm NW 8 13 - - - - 10 - - 16.7 988.9 0.0
03/01:00pm WNW 8 14 - - - - 10 - - 16.3 988.6 0.0
03/12:30pm WNW 11 16 - - - - 10 Partly cloudy - 16.5 988.3 0.0
03/12:00pm WNW 9 16 - - - - 10 Partly cloudy - 17.0 988.0 0.0
03/11:30am WNW 11 18 - - - - 10 Partly cloudy - 16.3 987.9 0.0
03/11:00am WNW 6 11 - - - - 10 Partly cloudy - 16.5 987.7 0.0
03/10:30am NW 7 11 - - - - 10 - - 16.2 987.4 0.0
03/10:00am NW 6 13 - - - - 10 - - 15.2 987.3 0.0
03/09:30am WNW 5 9 - - - - 10 - - 14.3 987.0 0.0
03/09:00am NW 3 6 - - - - 10 Mostly clear - 12.5 987.0 1.0
03/08:30am NW 5 6 - - - - 10 - - 10.9 986.6 1.0
03/08:00am NNW 5 7 - - - - 10 - - 9.9 986.4 1.0
03/07:30am NW 4 6 - - - - 10 - - 8.7 986.2 1.0
03/07:00am NW 5 7 - - - - 10 - - 8.5 986.0 1.0
03/06:30am NW 6 9 - - - - 10 Partly cloudy - 8.5 985.7 1.0
03/06:00am NW 5 6 - - - - 10 Partly cloudy - 8.6 985.5 1.0
03/05:30am NNW 5 9 - - - - 10 - - 8.9 985.2 1.0
03/05:00am N 5 6 - - - - 10 Partly cloudy - 8.8 985.0 1.0
03/04:30am NW 4 7 - - - - 10 - - 9.0 984.6 1.0
03/04:00am NW 4 6 - - - - 10 - - 9.3 984.8 1.0
03/03:30am NW 3 5 - - - - 10 - - 9.9 984.8 1.0
03/03:00am NW 4 5 - - - - 10 - - 9.9 984.7 1.0
03/02:30am W 4 6 - - - - 10 Partly cloudy - 10.7 984.9 1.0
03/02:00am WSW 1 4 - - - - 10 Partly cloudy - 10.5 984.5 1.0
03/01:30am SE 1 4 - - - - 10 Cloudy - 11.2 984.4 1.0
03/01:00am NW 5 7 - - - - 10 Cloudy - 11.8 984.7 1.0
03/12:30am WNW 6 8 - - - - 10 Partly cloudy - 11.7 984.6 1.0
03/12:00am NW 5 8 - - - - 10 Cloudy - 11.9 984.8 1.0
 
Date/Time
EDT
Wind Sea
Height
m
Swell Vis
km
Cloud Weather Temp
°C
Press
MSL
hPa
Rain since
9am
mm
Dir  Spd
kts
Gust
kts
Height
m
Period
s
Dir
02/11:30pm WNW 5 8 - - - - 10 Partly cloudy - 11.7 984.9 1.0
02/11:00pm NW 5 8 - - - - 10 Partly cloudy - 12.0 985.0 1.0
02/10:30pm NW 7 11 - - - - 10 Partly cloudy - 12.2 985.8 1.0
02/10:00pm NW 7 11 - - - - 10 Partly cloudy - 12.4 986.2 1.0
02/09:30pm NW 8 12 - - - - 10 Cloudy - 12.3 986.3 1.0
02/09:00pm WNW 7 11 - - - - 10 Cloudy - 12.4 986.1 1.0
02/08:30pm NNW 6 10 - - - - 10 Partly cloudy - 13.0 986.1 1.0
02/08:00pm W 8 14 - - - - 10 Partly cloudy - 13.3 985.9 1.0
02/07:30pm WNW 9 16 - - - - 10 Partly cloudy - 13.7 985.4 1.0
02/07:03pm WNW 11 21 - - - - 10 Partly cloudy - 13.6 985.2 1.0
02/07:00pm WNW 13 23 - - - - 10 Partly cloudy - 13.8 985.2 1.0
02/06:52pm NW 15 24 - - - - 5 Partly cloudy - 14.0 985.0 0.6
02/06:30pm NW 13 24 - - - - 10 Partly cloudy - 16.3 984.3 0.0
02/06:07pm NNW 17 27 - - - - 10 Partly cloudy - 17.3 984.1 0.0
02/06:00pm NNW 15 27 - - - - 10 Mostly clear - 17.8 983.9 0.0
02/05:59pm NNW 15 27 - - - - 10 Partly cloudy - 17.7 983.9 0.0
02/05:37pm NW 15 25 - - - - 10 Partly cloudy - 17.2 984.5 0.0
02/05:30pm NNW 13 23 - - - - 10 Partly cloudy - 18.1 984.5 0.0
02/05:00pm NW 14 22 - - - - 10 Partly cloudy - 16.4 985.2 0.0
02/04:30pm NNW 15 25 - - - - 10 Partly cloudy - 16.9 985.4 0.0
02/04:00pm NW 15 27 - - - - 10 Partly cloudy - 16.4 986.0 0.0
02/03:47pm NW 15 31 - - - - 10 Partly cloudy - 16.7 986.0 0.0
02/03:30pm NNW 14 23 - - - - 10 Partly cloudy - 16.9 986.2 0.0
02/03:06pm NW 15 25 - - - - 10 Partly cloudy - 18.2 986.2 0.0
02/03:00pm NW 10 18 - - - - 10 Partly cloudy - 18.9 986.4 0.0
02/02:30pm NNW 15 24 - - - - 10 Partly cloudy - 17.2 987.1 0.0
02/02:26pm NNW 15 26 - - - - 10 Partly cloudy - 17.2 987.1 0.0
02/02:00pm NNW 13 24 - - - - 10 Cloudy - 16.9 987.6 0.0
02/01:40pm NNW 16 27 - - - - 10 Partly cloudy - 17.2 987.9 0.0
02/01:30pm NW 13 27 - - - - 10 Partly cloudy - 17.7 988.2 0.0
02/01:00pm NW 14 27 - - - - 10 Partly cloudy - 16.9 988.8 0.0
02/12:30pm NW 10 19 - - - - 10 Partly cloudy - 17.3 989.2 0.0
02/12:00pm NNW 12 20 - - - - 10 Cloudy - 17.2 989.8 0.0
02/11:30am NW 10 18 - - - - 10 Partly cloudy - 17.1 990.6 0.0
02/11:00am NNW 9 16 - - - - 10 Partly cloudy - 16.3 991.6 0.0
02/10:30am NNW 10 15 - - - - 10 Partly cloudy - 14.9 992.3 0.0
02/10:00am N 7 9 - - - - 10 Partly cloudy - 13.6 992.9 0.0
02/09:30am NW 5 10 - - - - 10 Partly cloudy - 12.5 993.3 0.0

Other formats

Comma delimited format used in spreadsheet applications
http://www.bom.gov.au/fwo/IDT60701/IDT60701.95981.axf

JavaScript Object Notation format (JSON) in row-major order
http://www.bom.gov.au/fwo/IDT60701/IDT60701.95981.json

Data quality

Most of these data are generated automatically and are frequently updated. Quality checks on data are not normally performed. It is possible for incorrect values to appear. Refer to information at About Latest Weather Observations and please check the disclaimer before using these data.